Time;durP1;ratioP1;P1;durP2;ratioP2;P2;SDS_P1;SDS_P2;PMS_P1;PMS_P2;Temp;Humidity;BMP_temperature;BMP_pressure;BME280_temperature;BME280_humidity;BME280_pressure;Samples;Min_cycle;Max_cycle;Signal;HPM_P1;HPM_P2
2023/07/19 00:01:04;;;;;;;2.70;2.40;;;19.40;99.90;;;;;;5009051;28;20210;-74
2023/07/19 00:03:31;;;;;;;4.35;2.17;;;19.30;99.90;;;;;;5005699;28;20909;-75
2023/07/19 00:06:01;;;;;;;3.22;2.15;;;19.40;99.90;;;;;;4991736;28;20198;-75
2023/07/19 00:08:30;;;;;;;4.75;2.10;;;19.40;99.90;;;;;;5006295;28;20655;-73
2023/07/19 00:10:57;;;;;;;2.28;2.00;;;19.40;99.90;;;;;;5008311;28;20229;-73
2023/07/19 00:13:24;;;;;;;3.08;2.63;;;19.40;99.90;;;;;;5007565;28;20227;-75
2023/07/19 00:15:51;;;;;;;6.32;2.13;;;19.40;99.90;;;;;;5006752;28;20377;-74
2023/07/19 00:18:18;;;;;;;4.70;2.47;;;19.40;99.90;;;;;;5009656;28;20214;-73
2023/07/19 00:20:45;;;;;;;3.55;2.40;;;19.40;99.90;;;;;;5012171;28;20218;-72
2023/07/19 00:23:12;;;;;;;4.05;2.50;;;19.40;99.90;;;;;;5002572;28;20207;-74
2023/07/19 00:25:39;;;;;;;4.28;2.45;;;19.40;99.90;;;;;;5011618;28;20318;-76
2023/07/19 00:28:05;;;;;;;2.42;2.20;;;19.40;99.90;;;;;;5007959;28;20234;-73
2023/07/19 00:30:32;;;;;;;5.85;2.17;;;19.40;99.90;;;;;;5009306;28;20230;-74
2023/07/19 00:32:59;;;;;;;5.03;2.10;;;19.30;99.90;;;;;;5003636;28;20579;-76
2023/07/19 00:35:26;;;;;;;3.63;2.40;;;19.30;99.90;;;;;;5010647;28;20316;-74
2023/07/19 00:37:53;;;;;;;4.25;2.40;;;19.30;99.90;;;;;;4987539;28;20237;-72
2023/07/19 00:40:21;;;;;;;2.15;1.95;;;19.30;99.90;;;;;;5011906;28;20573;-73
2023/07/19 00:42:48;;;;;;;2.63;2.38;;;19.30;99.90;;;;;;5006657;28;20238;-73
2023/07/19 00:45:14;;;;;;;2.35;2.15;;;19.30;99.90;;;;;;5002745;28;20257;-76
2023/07/19 00:47:41;;;;;;;4.43;2.17;;;19.30;99.90;;;;;;5011441;28;20294;-73
2023/07/19 00:50:09;;;;;;;3.15;2.47;;;19.30;99.90;;;;;;5016358;28;20230;-74
2023/07/19 00:52:35;;;;;;;2.80;2.50;;;19.20;99.90;;;;;;5012088;28;20257;-74
2023/07/19 00:55:02;;;;;;;4.72;2.55;;;19.20;99.90;;;;;;5007669;28;20730;-76
2023/07/19 00:57:29;;;;;;;2.28;2.08;;;19.20;99.90;;;;;;5022693;28;20210;-73
2023/07/19 00:59:56;;;;;;;6.10;3.08;;;19.10;99.90;;;;;;5008886;28;20722;-75
2023/07/19 01:02:23;;;;;;;5.43;2.30;;;19.10;99.90;;;;;;4995847;28;20202;-75
2023/07/19 01:04:50;;;;;;;4.18;2.90;;;19.10;99.90;;;;;;5006141;28;20203;-73
2023/07/19 01:07:17;;;;;;;4.20;2.20;;;19.00;99.90;;;;;;5013844;28;20209;-74
2023/07/19 01:09:44;;;;;;;3.17;2.15;;;19.00;99.90;;;;;;5014447;28;20218;-75
2023/07/19 01:12:10;;;;;;;4.13;2.17;;;18.90;99.90;;;;;;4994591;28;20272;-74
2023/07/19 01:14:37;;;;;;;3.80;2.20;;;18.80;99.90;;;;;;4999110;28;20206;-75
2023/07/19 01:17:04;;;;;;;5.43;2.38;;;18.80;99.90;;;;;;5016210;28;20761;-74
2023/07/19 01:19:31;;;;;;;4.82;2.00;;;18.70;99.90;;;;;;5012898;28;20224;-75
2023/07/19 01:21:59;;;;;;;2.20;1.98;;;18.60;99.90;;;;;;5004559;28;20199;-75
2023/07/19 01:24:26;;;;;;;3.28;2.38;;;18.60;99.90;;;;;;4999397;28;20253;-73
2023/07/19 01:26:52;;;;;;;3.15;2.45;;;18.50;99.90;;;;;;5015495;28;20265;-73
2023/07/19 01:29:19;;;;;;;5.60;2.40;;;18.50;99.90;;;;;;4993477;28;20210;-74
2023/07/19 01:31:46;;;;;;;3.85;2.40;;;18.50;99.90;;;;;;5009290;28;20404;-76
2023/07/19 01:34:13;;;;;;;2.90;2.38;;;18.40;99.90;;;;;;5015535;28;20265;-75
2023/07/19 01:36:40;;;;;;;3.03;2.42;;;18.50;99.90;;;;;;5011270;28;20238;-73
2023/07/19 01:39:07;;;;;;;4.72;2.50;;;18.40;99.90;;;;;;4998820;28;20567;-73
2023/07/19 01:41:34;;;;;;;2.90;2.60;;;18.40;99.90;;;;;;5010473;28;20222;-73
2023/07/19 01:44:00;;;;;;;3.50;2.88;;;18.40;99.90;;;;;;5025985;28;20287;-73
2023/07/19 01:46:28;;;;;;;3.47;2.90;;;18.40;99.90;;;;;;5025432;28;20299;-75
2023/07/19 01:48:55;;;;;;;5.47;2.88;;;18.40;99.90;;;;;;5030297;28;20237;-76
2023/07/19 01:51:22;;;;;;;3.42;2.67;;;18.40;99.90;;;;;;5022783;28;20296;-74
2023/07/19 01:53:49;;;;;;;6.22;2.70;;;18.40;99.90;;;;;;5030316;28;20653;-74
2023/07/19 01:56:16;;;;;;;3.80;2.63;;;18.40;99.90;;;;;;5027883;28;20222;-74
2023/07/19 01:58:43;;;;;;;4.28;2.88;;;18.40;99.90;;;;;;5030955;28;20291;-73
2023/07/19 02:01:09;;;;;;;4.85;3.03;;;18.40;99.90;;;;;;5024086;28;20678;-72
2023/07/19 02:03:36;;;;;;;5.97;2.65;;;18.30;99.90;;;;;;5022051;28;20202;-74
2023/07/19 02:06:03;;;;;;;3.05;2.75;;;18.30;99.90;;;;;;5025351;28;20652;-74
2023/07/19 02:08:30;;;;;;;4.80;2.90;;;18.30;99.90;;;;;;5019027;28;20206;-74
2023/07/19 02:10:56;;;;;;;2.67;2.45;;;18.30;99.90;;;;;;5025822;28;20225;-72
2023/07/19 02:13:23;;;;;;;3.33;3.03;;;18.20;99.90;;;;;;5026021;28;20224;-74
2023/07/19 02:15:50;;;;;;;5.80;2.78;;;18.20;99.90;;;;;;5029415;28;20218;-73
2023/07/19 02:18:17;;;;;;;4.57;2.63;;;18.10;99.90;;;;;;5023282;28;20222;-74
2023/07/19 02:20:45;;;;;;;2.92;2.47;;;18.10;99.90;;;;;;5026460;28;20206;-73
2023/07/19 02:23:13;;;;;;;3.92;2.70;;;18.10;99.90;;;;;;5023075;28;20640;-77
2023/07/19 02:25:41;;;;;;;4.03;2.28;;;18.00;99.90;;;;;;5025443;28;20210;-73
2023/07/19 02:28:11;;;;;;;3.22;2.63;;;18.00;99.90;;;;;;5030017;28;20777;-72
2023/07/19 02:30:45;;;;;;;2.92;2.30;;;18.00;99.90;;;;;;5027399;28;20225;-73
2023/07/19 02:33:13;;;;;;;3.40;2.33;;;18.00;99.90;;;;;;5003166;28;20244;-73
2023/07/19 02:35:41;;;;;;;3.40;2.17;;;18.10;99.90;;;;;;5022968;28;20260;-73
2023/07/19 02:38:09;;;;;;;5.43;2.93;;;18.00;99.90;;;;;;5029560;28;20212;-73
2023/07/19 02:40:37;;;;;;;4.00;2.35;;;18.00;99.90;;;;;;5028480;28;20205;-73
2023/07/19 02:43:04;;;;;;;4.07;2.30;;;18.00;99.90;;;;;;4994064;28;20662;-74
2023/07/19 02:45:33;;;;;;;3.67;2.10;;;18.00;99.90;;;;;;5020815;28;20238;-74
2023/07/19 02:48:01;;;;;;;3.03;2.50;;;18.00;99.90;;;;;;5025854;28;20203;-74
2023/07/19 02:50:28;;;;;;;2.90;2.57;;;18.00;99.90;;;;;;5028619;28;20217;-72
2023/07/19 02:52:54;;;;;;;3.03;2.60;;;18.00;99.90;;;;;;5023031;28;20214;-74
2023/07/19 02:55:21;;;;;;;3.57;2.60;;;18.00;99.90;;;;;;5021782;28;20198;-73
2023/07/19 02:57:48;;;;;;;2.30;2.10;;;18.00;99.90;;;;;;5024524;28;20746;-73
2023/07/19 03:00:15;;;;;;;3.38;2.40;;;18.00;99.90;;;;;;5029767;28;20212;-72
2023/07/19 03:02:42;;;;;;;3.63;2.40;;;18.00;99.90;;;;;;5021087;28;20262;-76
2023/07/19 03:05:09;;;;;;;4.25;2.53;;;18.00;99.90;;;;;;5029341;28;20206;-74
2023/07/19 03:07:37;;;;;;;4.37;2.70;;;17.90;99.90;;;;;;5025826;28;20213;-73
2023/07/19 03:10:04;;;;;;;3.20;2.30;;;17.90;99.90;;;;;;5023260;28;20214;-73
2023/07/19 03:12:31;;;;;;;3.40;2.50;;;17.90;99.90;;;;;;5018420;28;20607;-72
2023/07/19 03:14:58;;;;;;;2.97;2.50;;;17.80;99.90;;;;;;5029555;28;20205;-72
2023/07/19 03:17:25;;;;;;;3.90;2.53;;;17.80;99.90;;;;;;5027432;28;20210;-74
2023/07/19 03:19:51;;;;;;;3.30;2.50;;;17.70;99.90;;;;;;5025544;28;20214;-73
2023/07/19 03:22:18;;;;;;;3.27;2.57;;;17.70;99.90;;;;;;5009978;28;20229;-77
2023/07/19 03:24:45;;;;;;;3.70;2.80;;;17.70;99.90;;;;;;5026477;28;20214;-73
2023/07/19 03:27:12;;;;;;;4.27;3.20;;;17.70;99.90;;;;;;5029063;28;20227;-76
2023/07/19 03:29:39;;;;;;;5.87;3.10;;;17.60;99.90;;;;;;5027236;28;20206;-72
2023/07/19 03:32:07;;;;;;;4.10;3.30;;;17.60;99.90;;;;;;5024576;28;20236;-73
2023/07/19 03:34:34;;;;;;;5.57;3.77;;;17.60;99.90;;;;;;5021852;28;20214;-73
2023/07/19 03:37:00;;;;;;;4.00;3.27;;;17.60;99.90;;;;;;5020886;28;20682;-73
2023/07/19 03:39:27;;;;;;;7.60;4.20;;;17.60;99.90;;;;;;5003922;28;20272;-72
2023/07/19 03:41:55;;;;;;;6.60;3.90;;;17.70;99.90;;;;;;5029590;28;20291;-75
2023/07/19 03:44:22;;;;;;;7.57;4.53;;;17.70;99.90;;;;;;5007163;28;20757;-73
2023/07/19 03:46:49;;;;;;;7.20;4.40;;;17.60;99.90;;;;;;4996875;28;20210;-72
2023/07/19 03:49:15;;;;;;;6.87;4.60;;;17.70;99.90;;;;;;5007733;28;20229;-73
2023/07/19 03:51:42;;;;;;;5.10;4.60;;;17.70;99.90;;;;;;5008785;28;20226;-76
2023/07/19 03:54:09;;;;;;;5.22;4.40;;;17.70;99.90;;;;;;5008316;28;20264;-73
2023/07/19 03:56:36;;;;;;;7.90;4.57;;;17.80;99.90;;;;;;4992054;28;20265;-73
2023/07/19 03:59:03;;;;;;;6.37;4.83;;;17.80;99.90;;;;;;4994469;28;20221;-73
2023/07/19 04:01:30;;;;;;;6.00;4.45;;;17.80;99.90;;;;;;5003983;28;20202;-73
2023/07/19 04:03:56;;;;;;;4.47;3.63;;;17.80;99.90;;;;;;5005044;28;20245;-73
2023/07/19 04:06:23;;;;;;;5.00;4.30;;;17.90;99.90;;;;;;5009250;28;20417;-74
2023/07/19 04:08:50;;;;;;;6.57;4.43;;;17.90;99.90;;;;;;5009415;28;20482;-73
2023/07/19 04:11:17;;;;;;;8.17;4.77;;;17.90;99.90;;;;;;5006086;28;20272;-73
2023/07/19 04:13:45;;;;;;;5.82;3.90;;;17.90;99.90;;;;;;4980633;28;20962;-76
2023/07/19 04:16:12;;;;;;;5.27;4.17;;;17.90;99.90;;;;;;5008376;28;20257;-72
2023/07/19 04:18:38;;;;;;;8.47;4.77;;;18.00;99.90;;;;;;5004170;28;20553;-73
2023/07/19 04:21:05;;;;;;;5.50;3.93;;;18.00;99.90;;;;;;4988954;28;20202;-72
2023/07/19 04:23:32;;;;;;;5.60;4.28;;;18.00;99.90;;;;;;5007398;28;20202;-73
2023/07/19 04:25:59;;;;;;;7.43;4.20;;;18.00;99.90;;;;;;5005525;28;20289;-73
2023/07/19 04:28:26;;;;;;;7.80;3.97;;;18.00;99.90;;;;;;5008812;28;20238;-73
2023/07/19 04:30:53;;;;;;;7.55;4.82;;;18.00;99.90;;;;;;5007672;28;20214;-73
2023/07/19 04:33:19;;;;;;;10.40;5.13;;;18.00;99.90;;;;;;5002498;28;20264;-73
2023/07/19 04:35:47;;;;;;;6.25;4.60;;;18.10;99.90;;;;;;5007634;28;20265;-72
2023/07/19 04:38:14;;;;;;;7.70;4.57;;;18.00;99.90;;;;;;5001632;28;20686;-76
2023/07/19 04:40:41;;;;;;;6.00;4.30;;;18.20;99.90;;;;;;5008306;28;20211;-73
2023/07/19 04:43:08;;;;;;;10.95;4.50;;;18.20;99.90;;;;;;5004266;28;20331;-74
2023/07/19 04:45:35;;;;;;;6.40;4.15;;;18.30;99.90;;;;;;5006381;28;20227;-74
2023/07/19 04:48:34;;;;;;;9.57;3.97;;;18.40;99.90;;;;;;5032046;28;20587;-74
2023/07/19 04:51:01;;;;;;;11.18;4.32;;;18.50;99.90;;;;;;5020015;28;20290;-72
2023/07/19 04:53:28;;;;;;;7.85;4.57;;;18.60;99.90;;;;;;5026837;28;20280;-73
2023/07/19 04:55:55;;;;;;;5.38;3.78;;;18.60;99.90;;;;;;5017524;28;20198;-73
2023/07/19 04:58:22;;;;;;;5.13;3.63;;;18.60;99.90;;;;;;5023066;28;20229;-73
2023/07/19 05:00:49;;;;;;;6.13;3.83;;;18.60;99.90;;;;;;5015968;28;20201;-74
2023/07/19 05:03:15;;;;;;;6.50;4.10;;;18.50;99.90;;;;;;5021507;28;20257;-74
2023/07/19 05:05:42;;;;;;;7.32;4.60;;;18.50;99.90;;;;;;5032870;28;20201;-73
2023/07/19 05:08:09;;;;;;;7.78;4.15;;;18.50;99.90;;;;;;5029789;28;20678;-72
2023/07/19 05:10:37;;;;;;;5.97;3.55;;;18.60;99.90;;;;;;5027333;28;20198;-73
2023/07/19 05:13:04;;;;;;;5.80;4.15;;;18.60;99.90;;;;;;5029421;28;20225;-73
2023/07/19 05:15:32;;;;;;;5.90;3.85;;;18.70;99.90;;;;;;5034250;28;20198;-74
2023/07/19 05:18:00;;;;;;;5.75;3.50;;;18.80;99.90;;;;;;5021713;28;20726;-72
2023/07/19 05:20:28;;;;;;;4.40;3.88;;;18.80;99.90;;;;;;5030558;28;20193;-73
2023/07/19 05:22:58;;;;;;;5.30;3.78;;;19.00;99.90;;;;;;5020263;28;20206;-73
2023/07/19 05:25:25;;;;;;;6.90;4.00;;;19.00;99.90;;;;;;5008712;28;20257;-73
2023/07/19 05:27:52;;;;;;;5.53;3.78;;;19.10;99.90;;;;;;5018141;28;20295;-73
2023/07/19 05:30:19;;;;;;;6.05;4.18;;;19.20;99.90;;;;;;5029677;28;20233;-73
2023/07/19 05:32:46;;;;;;;6.28;3.78;;;19.10;99.90;;;;;;5023639;28;20206;-75
2023/07/19 05:35:13;;;;;;;6.60;4.45;;;19.30;99.90;;;;;;5021730;28;20210;-73
2023/07/19 05:37:42;;;;;;;6.18;4.47;;;19.30;99.90;;;;;;5022707;28;20667;-73
2023/07/19 05:40:09;;;;;;;7.97;4.25;;;19.40;99.90;;;;;;5013748;28;20240;-72
2023/07/19 05:42:36;;;;;;;5.15;4.13;;;19.40;99.90;;;;;;5030508;28;20468;-72
2023/07/19 05:45:05;;;;;;;9.57;4.00;;;19.50;99.90;;;;;;5030146;28;20504;-73
2023/07/19 05:47:32;;;;;;;6.60;3.78;;;19.50;99.90;;;;;;5024534;28;20269;-74
2023/07/19 05:49:58;;;;;;;5.57;3.55;;;19.60;99.90;;;;;;5027624;28;20206;-74
2023/07/19 05:52:27;;;;;;;5.03;3.13;;;19.60;99.90;;;;;;5025630;28;20198;-74
2023/07/19 05:54:54;;;;;;;6.50;3.55;;;19.60;99.90;;;;;;5019641;28;20264;-75
2023/07/19 05:57:21;;;;;;;7.00;3.60;;;19.50;99.90;;;;;;5019679;28;20219;-73
2023/07/19 05:59:48;;;;;;;4.35;2.60;;;19.70;99.90;;;;;;5014961;28;20214;-75
2023/07/19 06:02:14;;;;;;;6.53;2.80;;;19.80;99.90;;;;;;5011466;28;20221;-73
2023/07/19 06:04:41;;;;;;;6.63;2.88;;;19.90;99.90;;;;;;5009607;28;20302;-73
2023/07/19 06:07:08;;;;;;;7.10;2.70;;;19.90;99.90;;;;;;5010912;28;20230;-74
2023/07/19 06:09:36;;;;;;;4.40;2.70;;;20.00;99.90;;;;;;5016703;28;20211;-74
2023/07/19 06:12:03;;;;;;;3.88;2.15;;;20.10;99.90;;;;;;5006529;28;20533;-72
2023/07/19 06:14:30;;;;;;;3.35;2.00;;;20.20;99.90;;;;;;5009431;28;20206;-72
2023/07/19 06:16:57;;;;;;;5.47;2.25;;;20.30;99.90;;;;;;5015602;28;20206;-73
2023/07/19 06:19:24;;;;;;;3.90;2.08;;;20.50;99.90;;;;;;5009974;28;20701;-74
2023/07/19 06:21:51;;;;;;;7.03;2.15;;;20.70;99.90;;;;;;4991178;28;20257;-74
2023/07/19 06:24:18;;;;;;;2.13;1.90;;;20.90;99.90;;;;;;5007934;28;20240;-73
2023/07/19 06:26:44;;;;;;;3.85;2.00;;;21.10;99.90;;;;;;5017564;28;20293;-76
2023/07/19 06:29:11;;;;;;;4.00;1.70;;;21.30;99.90;;;;;;5010078;28;20198;-74
2023/07/19 06:31:38;;;;;;;5.63;2.17;;;21.50;99.90;;;;;;5009212;28;20202;-74
2023/07/19 06:34:05;;;;;;;3.00;1.48;;;;;;;;;;5012346;28;20212;-75
2023/07/19 06:36:32;;;;;;;4.07;1.75;;;23.00;99.90;;;;;;5011730;28;20218;-73
2023/07/19 06:38:59;;;;;;;2.83;1.35;;;23.60;99.90;;;;;;5012974;28;20666;-75
2023/07/19 06:41:26;;;;;;;5.18;1.77;;;23.80;99.90;;;;;;5008688;28;20281;-74
2023/07/19 06:43:53;;;;;;;2.42;1.30;;;23.80;99.90;;;;;;5015044;28;20214;-73
2023/07/19 06:46:21;;;;;;;3.05;1.40;;;23.70;99.90;;;;;;5015605;28;20203;-74
2023/07/19 06:48:47;;;;;;;3.53;1.30;;;23.60;99.90;;;;;;5005003;28;20222;-75
2023/07/19 06:51:14;;;;;;;3.42;1.40;;;23.70;99.90;;;;;;5013940;28;20284;-73
2023/07/19 06:53:41;;;;;;;1.73;1.10;;;23.90;99.90;;;;;;5009587;28;20199;-75
2023/07/19 06:56:08;;;;;;;2.28;1.15;;;24.20;99.90;;;;;;4996014;28;20206;-74
2023/07/19 06:58:34;;;;;;;1.95;1.13;;;24.50;99.90;;;;;;5017303;28;20209;-72
2023/07/19 07:01:01;;;;;;;3.33;1.30;;;25.00;99.90;;;;;;5013110;28;20671;-74
2023/07/19 07:03:29;;;;;;;3.60;1.33;;;25.50;99.90;;;;;;5003537;28;20310;-75
2023/07/19 07:05:57;;;;;;;2.28;1.10;;;26.00;99.90;;;;;;4997884;28;20250;-74
2023/07/19 07:08:27;;;;;;;2.90;1.20;;;26.70;99.90;;;;;;5010383;28;20242;-74
2023/07/19 07:10:54;;;;;;;3.30;1.17;;;;;;;;;;5008646;28;20679;-75
2023/07/19 07:13:21;;;;;;;3.10;1.08;;;28.30;99.90;;;;;;5016103;28;20226;-74
2023/07/19 07:15:51;;;;;;;3.20;1.00;;;29.00;99.90;;;;;;5001787;28;20210;-75
2023/07/19 07:18:18;;;;;;;4.47;1.30;;;29.30;99.90;;;;;;5002244;28;20214;-73
2023/07/19 07:20:45;;;;;;;2.05;1.30;;;29.80;99.90;;;;;;5006678;28;20218;-75
2023/07/19 07:23:12;;;;;;;2.03;0.90;;;30.20;99.90;;;;;;5014147;28;20608;-74
2023/07/19 07:25:40;;;;;;;1.60;0.82;;;30.60;99.90;;;;;;5009524;28;20287;-74
2023/07/19 07:28:07;;;;;;;2.88;1.10;;;30.80;99.90;;;;;;5016304;28;20242;-74
2023/07/19 07:30:35;;;;;;;2.53;0.90;;;31.10;98.70;;;;;;5013678;28;20267;-75
2023/07/19 07:33:04;;;;;;;1.75;0.88;;;31.20;97.40;;;;;;5008522;28;20539;-74
2023/07/19 07:35:30;;;;;;;1.27;0.90;;;31.20;95.70;;;;;;5016669;28;20206;-74
2023/07/19 07:37:57;;;;;;;1.73;0.82;;;31.50;95.00;;;;;;5007115;28;20202;-75
2023/07/19 07:40:24;;;;;;;2.05;1.00;;;31.40;94.00;;;;;;5001663;28;20205;-75
2023/07/19 07:42:51;;;;;;;2.13;0.82;;;31.00;94.30;;;;;;5010163;28;20215;-75
2023/07/19 07:45:18;;;;;;;2.47;0.80;;;31.00;95.10;;;;;;5012285;28;20233;-74
2023/07/19 07:47:45;;;;;;;1.55;1.00;;;31.10;94.60;;;;;;5002218;28;20264;-73
2023/07/19 07:50:12;;;;;;;3.35;0.90;;;31.30;93.90;;;;;;5009836;28;20199;-74
2023/07/19 07:52:39;;;;;;;2.38;1.25;;;31.10;93.40;;;;;;5006597;28;20216;-75
2023/07/19 07:55:06;;;;;;;2.63;1.10;;;30.80;93.00;;;;;;5007635;28;20229;-73
2023/07/19 07:57:34;;;;;;;2.95;0.95;;;30.80;93.20;;;;;;5009102;28;20218;-74
2023/07/19 08:00:01;;;;;;;3.05;1.08;;;31.20;93.00;;;;;;5008612;28;20851;-73
2023/07/19 08:02:28;;;;;;;2.65;0.90;;;31.20;92.40;;;;;;5004205;28;20543;-73
2023/07/19 08:04:55;;;;;;;2.75;1.20;;;31.10;92.40;;;;;;4999429;28;20214;-75
2023/07/19 08:07:25;;;;;;;2.78;1.50;;;31.00;92.30;;;;;;5013775;28;20279;-78
2023/07/19 08:09:53;;;;;;;2.70;0.93;;;31.00;92.20;;;;;;4999251;28;20197;-74
2023/07/19 08:12:20;;;;;;;2.92;1.23;;;30.90;92.30;;;;;;5005982;28;20221;-73
2023/07/19 08:14:47;;;;;;;4.15;1.00;;;31.00;92.60;;;;;;5008077;28;20218;-76
2023/07/19 08:17:15;;;;;;;1.67;1.00;;;31.10;92.70;;;;;;5017382;28;20201;-74
2023/07/19 08:19:42;;;;;;;2.55;1.20;;;31.00;92.80;;;;;;5009990;28;20584;-74
2023/07/19 08:22:24;;;;;;;2.17;1.25;;;30.70;92.30;;;;;;5010146;28;20198;-74
2023/07/19 08:24:51;;;;;;;3.03;1.50;;;30.90;92.10;;;;;;5010173;28;20214;-73
2023/07/19 08:27:18;;;;;;;1.75;1.30;;;30.60;91.80;;;;;;5007249;28;20798;-74
2023/07/19 08:29:45;;;;;;;3.90;1.58;;;30.60;92.10;;;;;;5011893;28;20696;-73
2023/07/19 08:32:12;;;;;;;2.40;1.35;;;30.90;92.30;;;;;;5008304;28;20245;-73
2023/07/19 08:34:39;;;;;;;3.80;1.30;;;30.70;91.90;;;;;;5003013;28;20201;-75
2023/07/19 08:37:06;;;;;;;4.00;1.30;;;30.20;92.00;;;;;;5009101;28;20210;-73
2023/07/19 08:39:33;;;;;;;2.38;1.20;;;29.80;92.50;;;;;;5018497;28;20201;-73
2023/07/19 08:42:04;;;;;;;2.63;1.60;;;29.60;92.80;;;;;;5005901;28;20651;-74
2023/07/19 08:44:31;;;;;;;2.38;1.20;;;29.40;93.20;;;;;;5006982;28;20217;-73
2023/07/19 08:46:58;;;;;;;2.63;1.50;;;29.30;93.40;;;;;;5014025;28;20261;-73
2023/07/19 08:49:25;;;;;;;4.13;1.85;;;29.00;93.30;;;;;;5011500;28;20578;-74
2023/07/19 08:51:52;;;;;;;2.75;1.20;;;29.00;93.70;;;;;;5015879;28;20201;-73
2023/07/19 08:54:19;;;;;;;3.17;1.40;;;29.00;93.80;;;;;;5007734;28;20302;-75
2023/07/19 08:56:46;;;;;;;3.72;1.30;;;28.70;93.50;;;;;;5004529;28;20210;-73
2023/07/19 08:59:13;;;;;;;2.78;1.52;;;28.40;94.00;;;;;;5008524;28;20309;-73
2023/07/19 09:01:40;;;;;;;4.97;1.60;;;28.30;94.60;;;;;;4998345;28;20301;-74
2023/07/19 09:04:09;;;;;;;2.58;1.98;;;28.00;94.80;;;;;;5001030;28;20245;-73
2023/07/19 09:06:39;;;;;;;3.13;1.42;;;27.70;95.10;;;;;;5017062;28;20585;-73
2023/07/19 09:09:09;;;;;;;4.68;1.63;;;27.40;95.30;;;;;;5013618;28;20231;-72
2023/07/19 09:11:36;;;;;;;3.42;1.38;;;27.40;95.90;;;;;;5019738;28;20222;-75
2023/07/19 09:14:03;;;;;;;3.20;1.58;;;27.80;95.50;;;;;;5013040;28;20214;-74
2023/07/19 09:16:31;;;;;;;3.78;1.70;;;28.30;94.90;;;;;;5013349;28;20272;-74
2023/07/19 09:19:00;;;;;;;2.97;1.52;;;28.20;94.50;;;;;;5011430;28;20202;-73
2023/07/19 09:21:37;;;;;;;11.70;2.28;;;28.10;94.40;;;;;;5011133;28;20559;-74
2023/07/19 09:24:06;;;;;;;4.00;1.65;;;27.80;94.60;;;;;;5010048;28;20237;-75
2023/07/19 09:26:53;;;;;;;4.95;1.83;;;27.30;94.60;;;;;;5013350;28;20214;-74
2023/07/19 09:29:21;;;;;;;2.65;1.85;;;27.00;95.30;;;;;;5011842;28;20272;-73
2023/07/19 09:31:56;;;;;;;7.53;1.85;;;26.80;95.80;;;;;;5006547;28;20256;-73
2023/07/19 09:34:26;;;;;;;2.72;1.52;;;26.50;96.90;;;;;;5002867;28;20242;-73
2023/07/19 09:36:54;;;;;;;2.53;1.55;;;26.20;97.30;;;;;;5004107;28;20213;-73
2023/07/19 09:39:24;;;;;;;4.60;1.83;;;26.10;97.80;;;;;;5005287;28;20196;-72
2023/07/19 09:41:53;;;;;;;6.15;1.83;;;26.10;97.80;;;;;;5007558;28;20218;-73
2023/07/19 09:44:21;;;;;;;4.35;1.92;;;26.20;97.80;;;;;;5019337;28;20206;-73
2023/07/19 09:46:49;;;;;;;4.05;1.40;;;26.30;97.50;;;;;;5007440;28;20234;-73
2023/07/19 09:49:16;;;;;;;3.35;1.70;;;26.40;97.20;;;;;;5011295;28;20240;-72
2023/07/19 09:51:43;;;;;;;4.47;1.70;;;26.30;97.20;;;;;;5015696;28;20205;-74
2023/07/19 09:54:14;;;;;;;5.38;1.90;;;26.30;97.60;;;;;;5014102;28;20210;-73
2023/07/19 09:56:42;;;;;;;3.42;1.67;;;26.00;97.90;;;;;;5015254;28;20241;-72
2023/07/19 09:59:16;;;;;;;2.78;1.58;;;25.90;98.10;;;;;;5012542;28;20264;-73
2023/07/19 10:01:43;;;;;;;3.20;1.52;;;25.70;98.40;;;;;;5010889;28;20206;-74
2023/07/19 10:04:27;;;;;;;4.40;2.05;;;25.80;98.90;;;;;;5017638;28;20218;-74
2023/07/19 10:07:07;;;;;;;5.38;2.03;;;25.70;99.30;;;;;;5004391;28;20407;-73
2023/07/19 10:09:42;;;;;;;2.72;1.85;;;25.80;99.70;;;;;;5004474;28;20234;-74
2023/07/19 10:12:23;;;;;;;3.50;1.80;;;25.90;99.90;;;;;;5006179;28;20230;-74
2023/07/19 10:14:54;;;;;;;2.38;1.75;;;26.10;99.50;;;;;;5008552;28;20255;-72
2023/07/19 10:17:21;;;;;;;3.50;1.60;;;26.30;99.20;;;;;;5008496;28;20740;-74
2023/07/19 10:20:07;;;;;;;4.22;1.65;;;26.30;99.20;;;;;;5011451;28;20627;-72
2023/07/19 10:22:55;;;;;;;3.25;1.38;;;26.40;99.20;;;;;;5009022;28;20198;-73
2023/07/19 10:25:24;;;;;;;4.40;1.60;;;26.50;99.20;;;;;;5015061;28;20360;-73
2023/07/19 10:28:10;;;;;;;4.40;1.63;;;26.60;99.50;;;;;;5006878;28;20227;-74
2023/07/19 10:30:56;;;;;;;3.08;1.92;;;26.70;99.50;;;;;;5004869;28;20211;-73
2023/07/19 10:33:34;;;;;;;4.30;1.60;;;26.70;99.60;;;;;;5006926;28;20202;-73
2023/07/19 10:36:08;;;;;;;3.20;1.65;;;26.70;99.50;;;;;;5010117;28;20238;-73
2023/07/19 10:38:36;;;;;;;6.10;1.75;;;26.60;98.90;;;;;;5010176;28;20236;-74
2023/07/19 10:41:05;;;;;;;3.20;1.70;;;26.50;99.00;;;;;;5018645;28;20265;-73
2023/07/19 10:43:34;;;;;;;2.67;1.65;;;26.40;99.10;;;;;;5015328;28;20654;-74
2023/07/19 10:46:17;;;;;;;3.30;1.42;;;26.40;99.50;;;;;;5011878;28;20570;-73
2023/07/19 10:48:45;;;;;;;2.95;1.70;;;26.40;99.70;;;;;;5015095;28;20608;-73
2023/07/19 10:51:12;;;;;;;6.20;1.90;;;26.30;99.90;;;;;;5010848;28;20585;-73
2023/07/19 10:53:46;;;;;;;2.67;1.60;;;26.20;99.90;;;;;;5012349;28;20202;-74
2023/07/19 10:56:15;;;;;;;3.30;1.67;;;26.00;99.90;;;;;;5003715;28;20211;-74
2023/07/19 10:58:43;;;;;;;4.90;1.85;;;25.70;99.90;;;;;;5015060;28;20671;-73
2023/07/19 11:01:10;;;;;;;2.53;1.63;;;25.60;99.90;;;;;;5009922;28;20198;-74
2023/07/19 11:03:39;;;;;;;2.85;1.60;;;25.40;99.90;;;;;;5011222;28;20194;-74
2023/07/19 11:06:08;;;;;;;5.38;1.83;;;25.30;99.90;;;;;;5016425;28;20544;-73
2023/07/19 11:08:34;;;;;;;3.58;1.60;;;25.20;99.90;;;;;;5012138;28;20214;-74
2023/07/19 11:11:01;;;;;;;3.47;2.10;;;25.10;99.90;;;;;;5010482;28;20199;-72
2023/07/19 11:13:28;;;;;;;4.43;1.95;;;25.00;99.90;;;;;;5012339;28;20218;-73
2023/07/19 11:15:57;;;;;;;4.00;2.42;;;24.90;99.90;;;;;;5007972;28;20294;-74
2023/07/19 11:18:29;;;;;;;4.63;1.90;;;24.80;99.90;;;;;;5003886;28;20214;-75
2023/07/19 11:20:57;;;;;;;2.78;1.70;;;24.70;99.90;;;;;;5001717;28;20237;-75
2023/07/19 11:23:28;;;;;;;5.68;1.75;;;24.60;99.90;;;;;;5009911;28;20255;-74
2023/07/19 11:26:08;;;;;;;2.63;1.85;;;24.60;99.90;;;;;;5014030;28;20621;-73
2023/07/19 11:28:38;;;;;;;4.07;1.73;;;24.60;99.90;;;;;;5011371;28;20229;-73
2023/07/19 11:31:07;;;;;;;5.03;1.80;;;24.50;99.90;;;;;;5016000;28;20206;-74
2023/07/19 11:33:36;;;;;;;3.38;1.67;;;24.60;99.90;;;;;;5005545;28;20607;-74
2023/07/19 11:36:07;;;;;;;3.92;1.92;;;24.90;99.90;;;;;;4988585;28;20281;-74
2023/07/19 11:38:38;;;;;;;2.42;1.60;;;25.40;99.90;;;;;;5013704;28;20202;-74
2023/07/19 11:41:05;;;;;;;2.45;1.40;;;25.70;99.90;;;;;;5007363;28;20659;-74
2023/07/19 11:43:33;;;;;;;3.83;1.65;;;26.10;99.90;;;;;;5026834;28;20225;-74
2023/07/19 11:46:00;;;;;;;4.93;2.05;;;26.30;99.90;;;;;;4999371;28;20547;-73
2023/07/19 11:48:27;;;;;;;3.90;1.80;;;26.70;99.90;;;;;;5002798;28;20242;-74
2023/07/19 11:50:54;;;;;;;2.38;1.45;;;26.80;99.90;;;;;;5010160;28;20202;-74
2023/07/19 11:53:27;;;;;;;4.15;1.80;;;26.70;99.90;;;;;;5005249;28;20206;-73
2023/07/19 11:55:53;;;;;;;4.00;1.77;;;26.70;99.90;;;;;;5009436;28;20219;-73
2023/07/19 11:58:28;;;;;;;1.70;1.55;;;26.60;99.90;;;;;;5003743;28;20582;-74
2023/07/19 12:01:11;;;;;;;6.15;1.83;;;26.70;99.90;;;;;;5018194;28;20290;-74
2023/07/19 12:03:38;;;;;;;6.20;1.48;;;26.60;99.90;;;;;;5006908;28;20195;-73
2023/07/19 12:06:06;;;;;;;3.55;1.77;;;26.40;99.90;;;;;;5009950;28;20210;-73
2023/07/19 12:08:34;;;;;;;3.90;1.60;;;26.20;99.90;;;;;;5006368;28;20225;-74
2023/07/19 12:11:02;;;;;;;6.28;1.73;;;26.00;99.90;;;;;;5008602;28;20230;-74
2023/07/19 12:13:29;;;;;;;3.55;1.60;;;26.10;99.90;;;;;;5012460;28;20305;-74
2023/07/19 12:15:56;;;;;;;3.38;1.65;;;26.20;99.90;;;;;;5009319;28;20568;-73
2023/07/19 12:18:23;;;;;;;4.20;1.77;;;26.30;99.90;;;;;;5010280;28;20624;-74
2023/07/19 12:20:53;;;;;;;2.75;1.38;;;26.30;99.90;;;;;;5001754;28;20247;-74
2023/07/19 12:23:20;;;;;;;2.72;1.48;;;26.30;99.90;;;;;;5018701;28;20291;-73
2023/07/19 12:25:59;;;;;;;4.03;2.17;;;26.10;99.90;;;;;;4992946;28;20645;-72
2023/07/19 12:28:26;;;;;;;4.85;1.95;;;26.20;99.90;;;;;;5018501;28;20229;-74
2023/07/19 12:30:54;;;;;;;4.75;1.80;;;26.20;99.90;;;;;;5008871;28;20210;-74
2023/07/19 12:33:21;;;;;;;3.63;1.95;;;26.30;99.90;;;;;;5013979;28;20244;-75
2023/07/19 12:35:48;;;;;;;4.18;1.98;;;26.30;99.90;;;;;;4994613;28;20209;-74
2023/07/19 12:38:15;;;;;;;2.55;1.73;;;26.30;99.90;;;;;;5014266;28;20248;-73
2023/07/19 12:40:43;;;;;;;4.55;2.00;;;26.20;99.90;;;;;;5010533;28;20209;-73
2023/07/19 12:43:10;;;;;;;2.28;1.60;;;26.10;99.90;;;;;;5015760;28;20235;-73
2023/07/19 12:45:37;;;;;;;3.13;1.70;;;26.10;99.90;;;;;;5009766;28;20707;-74
2023/07/19 12:48:04;;;;;;;4.30;1.95;;;26.00;99.90;;;;;;5015158;28;20290;-74
2023/07/19 12:50:32;;;;;;;3.08;1.63;;;26.00;99.90;;;;;;5012556;28;20238;-73
2023/07/19 12:52:58;;;;;;;4.97;1.70;;;26.00;99.90;;;;;;5006693;28;20222;-73